sensor_id;sensor_type;location;lat;lon;timestamp;pressure;altitude;pressure_sealevel;temperature;humidity
45888;BME280;31595;51.418;7.572;2023-01-30T00:02:01;100502.25;;;5.06;71.31
45888;BME280;31595;51.418;7.572;2023-01-30T00:04:29;100498.94;;;5.19;70.86
45888;BME280;31595;51.418;7.572;2023-01-30T00:06:56;100477.69;;;5.04;70.97
45888;BME280;31595;51.418;7.572;2023-01-30T00:09:24;100479.63;;;5.09;71.67
45888;BME280;31595;51.418;7.572;2023-01-30T00:11:51;100482.66;;;5.07;71.77
45888;BME280;31595;51.418;7.572;2023-01-30T00:14:18;100488.47;;;5.01;71.50
45888;BME280;31595;51.418;7.572;2023-01-30T00:16:47;100489.56;;;4.95;72.41
45888;BME280;31595;51.418;7.572;2023-01-30T00:19:14;100489.03;;;4.98;72.02
45888;BME280;31595;51.418;7.572;2023-01-30T00:21:41;100498.69;;;5.00;72.25
45888;BME280;31595;51.418;7.572;2023-01-30T00:24:08;100494.53;;;4.98;72.54
45888;BME280;31595;51.418;7.572;2023-01-30T00:26:36;100490.09;;;5.12;72.03
45888;BME280;31595;51.418;7.572;2023-01-30T00:29:03;100485.09;;;5.24;72.07
45888;BME280;31595;51.418;7.572;2023-01-30T00:31:30;100498.63;;;5.31;71.93
45888;BME280;31595;51.418;7.572;2023-01-30T00:33:59;100486.75;;;5.31;71.92
45888;BME280;31595;51.418;7.572;2023-01-30T00:36:26;100494.78;;;5.32;71.66
45888;BME280;31595;51.418;7.572;2023-01-30T00:38:55;100524.03;;;5.33;71.71
45888;BME280;31595;51.418;7.572;2023-01-30T00:41:23;100477.41;;;5.21;71.87
45888;BME280;31595;51.418;7.572;2023-01-30T00:44:10;100473.78;;;5.36;72.12
45888;BME280;31595;51.418;7.572;2023-01-30T00:46:54;100463.53;;;5.47;71.87
45888;BME280;31595;51.418;7.572;2023-01-30T00:49:35;100443.66;;;5.40;71.67
45888;BME280;31595;51.418;7.572;2023-01-30T00:52:03;100444.50;;;5.35;72.25
45888;BME280;31595;51.418;7.572;2023-01-30T00:54:31;100435.38;;;5.40;71.88
45888;BME280;31595;51.418;7.572;2023-01-30T00:56:59;100433.44;;;5.40;72.18
45888;BME280;31595;51.418;7.572;2023-01-30T00:59:27;100428.22;;;5.28;72.25
45888;BME280;31595;51.418;7.572;2023-01-30T01:01:54;100441.44;;;5.47;72.64
45888;BME280;31595;51.418;7.572;2023-01-30T01:04:21;100435.34;;;5.45;72.66
45888;BME280;31595;51.418;7.572;2023-01-30T01:06:50;100412.91;;;5.62;72.54
45888;BME280;31595;51.418;7.572;2023-01-30T01:09:17;100422.28;;;5.66;72.56
45888;BME280;31595;51.418;7.572;2023-01-30T01:11:45;100415.41;;;5.63;72.28
45888;BME280;31595;51.418;7.572;2023-01-30T01:14:12;100426.19;;;5.65;72.43
45888;BME280;31595;51.418;7.572;2023-01-30T01:16:39;100408.72;;;5.75;72.46
45888;BME280;31595;51.418;7.572;2023-01-30T01:19:06;100413.69;;;5.78;72.12
45888;BME280;31595;51.418;7.572;2023-01-30T01:21:34;100405.34;;;5.83;72.04
45888;BME280;31595;51.418;7.572;2023-01-30T01:24:03;100397.59;;;5.90;72.01
45888;BME280;31595;51.418;7.572;2023-01-30T01:26:30;100389.34;;;5.80;72.16
45888;BME280;31595;51.418;7.572;2023-01-30T01:28:58;100365.34;;;5.70;72.44
45888;BME280;31595;51.418;7.572;2023-01-30T01:31:25;100384.38;;;5.77;72.27
45888;BME280;31595;51.418;7.572;2023-01-30T01:33:53;100356.75;;;5.77;72.16
45888;BME280;31595;51.418;7.572;2023-01-30T01:36:20;100353.41;;;5.80;72.55
45888;BME280;31595;51.418;7.572;2023-01-30T01:38:47;100358.41;;;5.78;72.55
45888;BME280;31595;51.418;7.572;2023-01-30T01:41:16;100361.72;;;5.80;72.52
45888;BME280;31595;51.418;7.572;2023-01-30T01:43:59;100364.41;;;5.90;72.88
45888;BME280;31595;51.418;7.572;2023-01-30T01:46:29;100348.34;;;5.92;73.15
45888;BME280;31595;51.418;7.572;2023-01-30T01:49:02;100348.88;;;5.94;73.26
45888;BME280;31595;51.418;7.572;2023-01-30T01:51:33;100354.97;;;6.01;73.63
45888;BME280;31595;51.418;7.572;2023-01-30T01:54:04;100357.47;;;6.03;73.99
45888;BME280;31595;51.418;7.572;2023-01-30T01:56:34;100335.91;;;6.00;74.16
45888;BME280;31595;51.418;7.572;2023-01-30T01:59:08;100367.69;;;5.92;74.62
45888;BME280;31595;51.418;7.572;2023-01-30T02:01:37;100345.00;;;6.00;74.53
45888;BME280;31595;51.418;7.572;2023-01-30T02:04:05;100338.91;;;6.03;74.48
45888;BME280;31595;51.418;7.572;2023-01-30T02:06:36;100325.97;;;5.99;74.54
45888;BME280;31595;51.418;7.572;2023-01-30T02:09:07;100320.41;;;5.94;74.78
45888;BME280;31595;51.418;7.572;2023-01-30T02:11:41;100308.53;;;5.93;75.15
45888;BME280;31595;51.418;7.572;2023-01-30T02:14:10;100319.34;;;5.95;75.25
45888;BME280;31595;51.418;7.572;2023-01-30T02:16:38;100304.69;;;5.89;75.00
45888;BME280;31595;51.418;7.572;2023-01-30T02:19:17;100314.91;;;5.94;75.76
45888;BME280;31595;51.418;7.572;2023-01-30T02:22:21;100305.75;;;6.03;75.65
45888;BME280;31595;51.418;7.572;2023-01-30T02:25:12;100298.06;;;5.95;75.66
45888;BME280;31595;51.418;7.572;2023-01-30T02:28:05;100318.22;;;6.01;75.82
45888;BME280;31595;51.418;7.572;2023-01-30T02:31:12;100295.84;;;5.97;76.00
45888;BME280;31595;51.418;7.572;2023-01-30T02:33:49;100283.66;;;5.93;75.96
45888;BME280;31595;51.418;7.572;2023-01-30T02:36:26;100265.41;;;5.97;76.00
45888;BME280;31595;51.418;7.572;2023-01-30T02:39:03;100281.72;;;5.99;76.24
45888;BME280;31595;51.418;7.572;2023-01-30T02:41:38;100275.94;;;5.95;76.25
45888;BME280;31595;51.418;7.572;2023-01-30T02:44:13;100271.47;;;5.94;75.95
45888;BME280;31595;51.418;7.572;2023-01-30T02:46:51;100248.31;;;5.90;76.06
45888;BME280;31595;51.418;7.572;2023-01-30T02:49:22;100247.72;;;5.98;76.00
45888;BME280;31595;51.418;7.572;2023-01-30T02:51:55;100257.59;;;6.04;76.43
45888;BME280;31595;51.418;7.572;2023-01-30T02:54:23;100256.44;;;6.10;75.82
45888;BME280;31595;51.418;7.572;2023-01-30T02:56:52;100256.50;;;6.05;76.05
45888;BME280;31595;51.418;7.572;2023-01-30T02:59:24;100256.25;;;6.02;75.98
45888;BME280;31595;51.418;7.572;2023-01-30T03:02:11;100261.44;;;6.08;76.21
45888;BME280;31595;51.418;7.572;2023-01-30T03:04:59;100250.56;;;6.22;75.83
45888;BME280;31595;51.418;7.572;2023-01-30T03:07:37;100245.81;;;6.28;75.75
45888;BME280;31595;51.418;7.572;2023-01-30T03:10:17;100257.69;;;6.28;75.63
45888;BME280;31595;51.418;7.572;2023-01-30T03:12:53;100249.31;;;6.34;74.85
45888;BME280;31595;51.418;7.572;2023-01-30T03:15:27;100254.56;;;6.35;74.87
45888;BME280;31595;51.418;7.572;2023-01-30T03:17:58;100249.31;;;6.34;74.51
45888;BME280;31595;51.418;7.572;2023-01-30T03:20:25;100242.69;;;6.35;74.54
45888;BME280;31595;51.418;7.572;2023-01-30T03:22:53;100237.44;;;6.33;74.96
45888;BME280;31595;51.418;7.572;2023-01-30T03:25:22;100217.47;;;6.36;75.19
45888;BME280;31595;51.418;7.572;2023-01-30T03:27:53;100218.00;;;6.38;75.67
45888;BME280;31595;51.418;7.572;2023-01-30T03:30:23;100207.91;;;6.28;75.19
45888;BME280;31595;51.418;7.572;2023-01-30T03:32:51;100213.09;;;6.35;75.42
45888;BME280;31595;51.418;7.572;2023-01-30T03:35:23;100199.25;;;6.35;75.72
45888;BME280;31595;51.418;7.572;2023-01-30T03:37:50;100198.66;;;6.38;75.60
45888;BME280;31595;51.418;7.572;2023-01-30T03:40:18;100208.63;;;6.39;75.23
45888;BME280;31595;51.418;7.572;2023-01-30T03:42:45;100209.69;;;6.43;74.98
45888;BME280;31595;51.418;7.572;2023-01-30T03:45:12;100199.78;;;6.37;75.17
45888;BME280;31595;51.418;7.572;2023-01-30T03:47:40;100195.84;;;6.43;75.11
45888;BME280;31595;51.418;7.572;2023-01-30T03:50:08;100190.59;;;6.42;75.73
45888;BME280;31595;51.418;7.572;2023-01-30T03:52:37;100186.94;;;6.46;75.85
45888;BME280;31595;51.418;7.572;2023-01-30T03:55:05;100181.38;;;6.52;75.61
45888;BME280;31595;51.418;7.572;2023-01-30T03:57:32;100161.75;;;6.48;74.83
45888;BME280;31595;51.418;7.572;2023-01-30T04:00:00;100159.91;;;6.38;74.91
45888;BME280;31595;51.418;7.572;2023-01-30T04:02:27;100149.38;;;6.40;75.86
45888;BME280;31595;51.418;7.572;2023-01-30T04:04:56;100164.28;;;6.44;75.35
45888;BME280;31595;51.418;7.572;2023-01-30T04:07:23;100147.63;;;6.49;75.76
45888;BME280;31595;51.418;7.572;2023-01-30T04:09:52;100144.63;;;6.46;75.83
45888;BME280;31595;51.418;7.572;2023-01-30T04:12:19;100151.88;;;6.42;75.78
45888;BME280;31595;51.418;7.572;2023-01-30T04:14:46;100148.16;;;6.52;76.02
45888;BME280;31595;51.418;7.572;2023-01-30T04:17:14;100154.00;;;6.50;75.91
45888;BME280;31595;51.418;7.572;2023-01-30T04:19:41;100142.09;;;6.49;75.76
45888;BME280;31595;51.418;7.572;2023-01-30T04:22:08;100136.44;;;6.60;76.10
45888;BME280;31595;51.418;7.572;2023-01-30T04:24:36;100136.44;;;6.60;75.55
45888;BME280;31595;51.418;7.572;2023-01-30T04:27:04;100141.66;;;6.61;76.17
45888;BME280;31595;51.418;7.572;2023-01-30T04:29:31;100141.66;;;6.61;75.57
45888;BME280;31595;51.418;7.572;2023-01-30T04:31:59;100155.97;;;6.68;75.63
45888;BME280;31595;51.418;7.572;2023-01-30T04:34:26;100136.38;;;6.65;76.42
45888;BME280;31595;51.418;7.572;2023-01-30T04:36:53;100137.13;;;6.70;76.06
45888;BME280;31595;51.418;7.572;2023-01-30T04:39:20;100144.09;;;6.68;76.11
45888;BME280;31595;51.418;7.572;2023-01-30T04:41:48;100135.78;;;6.68;76.98
45888;BME280;31595;51.418;7.572;2023-01-30T04:44:16;100137.91;;;6.76;76.87
45888;BME280;31595;51.418;7.572;2023-01-30T04:46:44;100134.94;;;6.67;77.02
45888;BME280;31595;51.418;7.572;2023-01-30T04:49:12;100132.31;;;6.57;77.79
45888;BME280;31595;51.418;7.572;2023-01-30T04:51:41;100127.69;;;6.71;76.93
45888;BME280;31595;51.418;7.572;2023-01-30T04:54:08;100125.97;;;6.76;77.56
45888;BME280;31595;51.418;7.572;2023-01-30T04:56:35;100132.78;;;6.64;77.95
45888;BME280;31595;51.418;7.572;2023-01-30T04:59:02;100127.13;;;6.75;77.37
45888;BME280;31595;51.418;7.572;2023-01-30T05:01:34;100116.94;;;6.70;78.12
45888;BME280;31595;51.418;7.572;2023-01-30T05:04:02;100115.38;;;6.64;77.78
45888;BME280;31595;51.418;7.572;2023-01-30T05:06:30;100130.19;;;6.73;77.51
45888;BME280;31595;51.418;7.572;2023-01-30T05:08:58;100110.50;;;6.75;77.92
45888;BME280;31595;51.418;7.572;2023-01-30T05:11:27;100098.97;;;6.67;78.46
45888;BME280;31595;51.418;7.572;2023-01-30T05:13:55;100103.09;;;6.70;78.39
45888;BME280;31595;51.418;7.572;2023-01-30T05:16:23;100111.56;;;6.79;79.16
45888;BME280;31595;51.418;7.572;2023-01-30T05:18:52;100117.91;;;6.79;78.90
45888;BME280;31595;51.418;7.572;2023-01-30T05:21:20;100111.84;;;6.77;78.21
45888;BME280;31595;51.418;7.572;2023-01-30T05:23:49;100116.78;;;6.80;77.96
45888;BME280;31595;51.418;7.572;2023-01-30T05:26:16;100097.72;;;6.79;77.96
45888;BME280;31595;51.418;7.572;2023-01-30T05:28:44;100117.38;;;6.77;78.70
45888;BME280;31595;51.418;7.572;2023-01-30T05:31:16;100104.00;;;6.84;77.53
45888;BME280;31595;51.418;7.572;2023-01-30T05:33:45;100101.69;;;6.91;77.56
45888;BME280;31595;51.418;7.572;2023-01-30T05:36:15;100096.69;;;6.94;78.24
45888;BME280;31595;51.418;7.572;2023-01-30T05:38:43;100104.31;;;7.02;77.05
45888;BME280;31595;51.418;7.572;2023-01-30T05:41:11;100101.75;;;7.05;77.70
45888;BME280;31595;51.418;7.572;2023-01-30T05:43:39;100092.03;;;7.08;77.66
45888;BME280;31595;51.418;7.572;2023-01-30T05:46:06;100094.81;;;7.08;77.59
45888;BME280;31595;51.418;7.572;2023-01-30T05:48:35;100083.13;;;7.11;76.91
45888;BME280;31595;51.418;7.572;2023-01-30T05:51:03;100089.56;;;7.06;76.93
45888;BME280;31595;51.418;7.572;2023-01-30T05:53:32;100080.97;;;7.08;76.90
45888;BME280;31595;51.418;7.572;2023-01-30T05:56:00;100091.66;;;7.15;77.36
45888;BME280;31595;51.418;7.572;2023-01-30T05:58:28;100090.84;;;7.14;77.84
45888;BME280;31595;51.418;7.572;2023-01-30T06:00:59;100105.78;;;7.13;77.89
45888;BME280;31595;51.418;7.572;2023-01-30T06:03:27;100107.66;;;7.18;77.41
45888;BME280;31595;51.418;7.572;2023-01-30T06:05:54;100103.53;;;7.15;78.57
45888;BME280;31595;51.418;7.572;2023-01-30T06:08:22;100095.53;;;7.14;77.99
45888;BME280;31595;51.418;7.572;2023-01-30T06:10:51;100077.72;;;7.20;77.37
45888;BME280;31595;51.418;7.572;2023-01-30T06:13:18;100091.03;;;7.18;78.30
45888;BME280;31595;51.418;7.572;2023-01-30T06:15:46;100091.56;;;7.20;77.97
45888;BME280;31595;51.418;7.572;2023-01-30T06:18:13;100087.16;;;7.19;78.04
45888;BME280;31595;51.418;7.572;2023-01-30T06:20:46;100089.84;;;7.24;78.13
45888;BME280;31595;51.418;7.572;2023-01-30T06:23:13;100104.06;;;7.17;78.16
45888;BME280;31595;51.418;7.572;2023-01-30T06:25:42;100113.66;;;7.25;78.78
45888;BME280;31595;51.418;7.572;2023-01-30T06:28:11;100113.28;;;7.31;77.93
45888;BME280;31595;51.418;7.572;2023-01-30T06:30:38;100116.63;;;7.28;78.91
45888;BME280;31595;51.418;7.572;2023-01-30T06:33:06;100118.03;;;7.45;78.56
45888;BME280;31595;51.418;7.572;2023-01-30T06:35:36;100113.31;;;7.45;79.13
45888;BME280;31595;51.418;7.572;2023-01-30T06:38:03;100113.63;;;7.44;77.87
45888;BME280;31595;51.418;7.572;2023-01-30T06:40:31;100118.13;;;7.40;77.77
45888;BME280;31595;51.418;7.572;2023-01-30T06:42:58;100111.81;;;7.53;78.77
45888;BME280;31595;51.418;7.572;2023-01-30T06:45:27;100109.03;;;7.53;78.54
45888;BME280;31595;51.418;7.572;2023-01-30T06:47:55;100111.13;;;7.61;77.76
45888;BME280;31595;51.418;7.572;2023-01-30T06:50:23;100126.00;;;7.65;78.09
45888;BME280;31595;51.418;7.572;2023-01-30T06:52:51;100134.16;;;7.76;77.63
45888;BME280;31595;51.418;7.572;2023-01-30T06:55:20;100145.16;;;7.81;77.62
45888;BME280;31595;51.418;7.572;2023-01-30T06:57:48;100139.53;;;7.86;77.44
45888;BME280;31595;51.418;7.572;2023-01-30T07:00:17;100141.28;;;7.96;77.80
45888;BME280;31595;51.418;7.572;2023-01-30T07:02:46;100144.91;;;7.96;77.62
45888;BME280;31595;51.418;7.572;2023-01-30T07:05:14;100122.59;;;8.01;77.70
45888;BME280;31595;51.418;7.572;2023-01-30T07:07:41;100131.34;;;8.08;75.98
45888;BME280;31595;51.418;7.572;2023-01-30T07:10:10;100134.84;;;8.14;76.51
45888;BME280;31595;51.418;7.572;2023-01-30T07:12:38;100129.72;;;8.21;76.17
45888;BME280;31595;51.418;7.572;2023-01-30T07:15:06;100135.97;;;8.27;76.65
45888;BME280;31595;51.418;7.572;2023-01-30T07:17:33;100144.31;;;8.27;75.45
45888;BME280;31595;51.418;7.572;2023-01-30T07:20:02;100129.50;;;8.31;76.84
45888;BME280;31595;51.418;7.572;2023-01-30T07:22:29;100124.78;;;8.32;75.50
45888;BME280;31595;51.418;7.572;2023-01-30T07:24:57;100119.13;;;8.37;74.20
45888;BME280;31595;51.418;7.572;2023-01-30T07:27:24;100132.50;;;8.35;74.73
45888;BME280;31595;51.418;7.572;2023-01-30T07:29:51;100122.41;;;8.39;73.70
45888;BME280;31595;51.418;7.572;2023-01-30T07:32:19;100133.13;;;8.46;74.39
45888;BME280;31595;51.418;7.572;2023-01-30T07:34:46;100125.44;;;8.43;74.69
45888;BME280;31595;51.418;7.572;2023-01-30T07:37:15;100131.72;;;8.48;74.67
45888;BME280;31595;51.418;7.572;2023-01-30T07:39:42;100137.38;;;8.57;74.51
45888;BME280;31595;51.418;7.572;2023-01-30T07:42:09;100151.03;;;8.53;74.33
45888;BME280;31595;51.418;7.572;2023-01-30T07:44:36;100135.19;;;8.54;73.96
45888;BME280;31595;51.418;7.572;2023-01-30T07:47:04;100141.47;;;8.60;72.66
45888;BME280;31595;51.418;7.572;2023-01-30T07:49:31;100150.31;;;8.62;72.53
45888;BME280;31595;51.418;7.572;2023-01-30T07:51:58;100142.50;;;8.64;71.97
45888;BME280;31595;51.418;7.572;2023-01-30T07:54:27;100137.97;;;8.68;71.67
45888;BME280;31595;51.418;7.572;2023-01-30T07:56:54;100152.44;;;8.65;70.72
45888;BME280;31595;51.418;7.572;2023-01-30T07:59:21;100149.88;;;8.68;71.63
45888;BME280;31595;51.418;7.572;2023-01-30T08:01:48;100144.97;;;8.65;71.19
45888;BME280;31595;51.418;7.572;2023-01-30T08:04:16;100163.47;;;8.70;70.72
45888;BME280;31595;51.418;7.572;2023-01-30T08:06:43;100158.94;;;8.74;70.23
45888;BME280;31595;51.418;7.572;2023-01-30T08:09:10;100159.03;;;8.83;71.21
45888;BME280;31595;51.418;7.572;2023-01-30T08:11:39;100161.81;;;8.83;68.99
45888;BME280;31595;51.418;7.572;2023-01-30T08:14:06;100148.66;;;8.88;69.97
45888;BME280;31595;51.418;7.572;2023-01-30T08:16:33;100151.94;;;8.77;68.63
45888;BME280;31595;51.418;7.572;2023-01-30T08:19:03;100160.28;;;8.90;70.02
45888;BME280;31595;51.418;7.572;2023-01-30T08:21:31;100171.91;;;8.79;68.16
45888;BME280;31595;51.418;7.572;2023-01-30T08:23:58;100172.09;;;8.82;67.96
45888;BME280;31595;51.418;7.572;2023-01-30T08:26:25;100174.75;;;8.87;68.60
45888;BME280;31595;51.418;7.572;2023-01-30T08:28:54;100168.53;;;9.18;67.07
45888;BME280;31595;51.418;7.572;2023-01-30T08:31:22;100180.59;;;9.50;66.22
45888;BME280;31595;51.418;7.572;2023-01-30T08:33:49;100182.19;;;9.65;64.83
45888;BME280;31595;51.418;7.572;2023-01-30T08:36:16;100172.50;;;9.62;65.27
45888;BME280;31595;51.418;7.572;2023-01-30T08:38:43;100175.84;;;9.50;65.48
45888;BME280;31595;51.418;7.572;2023-01-30T08:41:11;100179.19;;;9.39;63.67
45888;BME280;31595;51.418;7.572;2023-01-30T08:43:38;100182.09;;;9.33;64.14
45888;BME280;31595;51.418;7.572;2023-01-30T08:46:07;100184.13;;;9.42;64.03
45888;BME280;31595;51.418;7.572;2023-01-30T08:48:34;100176.91;;;9.41;64.90
45888;BME280;31595;51.418;7.572;2023-01-30T08:51:03;100183.56;;;9.53;64.56
45888;BME280;31595;51.418;7.572;2023-01-30T08:53:32;100171.75;;;9.48;64.21
45888;BME280;31595;51.418;7.572;2023-01-30T08:55:59;100182.91;;;9.34;63.97
45888;BME280;31595;51.418;7.572;2023-01-30T08:58:26;100178.34;;;9.38;64.62
45888;BME280;31595;51.418;7.572;2023-01-30T09:00:53;100176.28;;;9.44;63.67
45888;BME280;31595;51.418;7.572;2023-01-30T09:03:22;100179.19;;;9.39;63.23
45888;BME280;31595;51.418;7.572;2023-01-30T09:05:53;100181.06;;;9.29;63.83
45888;BME280;31595;51.418;7.572;2023-01-30T09:08:20;100181.38;;;9.28;64.45
45888;BME280;31595;51.418;7.572;2023-01-30T09:10:48;100180.03;;;9.25;64.64
45888;BME280;31595;51.418;7.572;2023-01-30T09:13:15;100183.97;;;9.24;63.72
45888;BME280;31595;51.418;7.572;2023-01-30T09:15:43;100181.88;;;9.30;62.94
45888;BME280;31595;51.418;7.572;2023-01-30T09:18:10;100203.28;;;9.29;62.44
45888;BME280;31595;51.418;7.572;2023-01-30T09:20:39;100196.72;;;9.25;62.13
45888;BME280;31595;51.418;7.572;2023-01-30T09:23:06;100193.78;;;9.44;62.00
45888;BME280;31595;51.418;7.572;2023-01-30T09:25:33;100186.66;;;9.97;60.20
45888;BME280;31595;51.418;7.572;2023-01-30T09:28:00;100192.31;;;9.83;59.62
45888;BME280;31595;51.418;7.572;2023-01-30T09:30:28;100201.50;;;9.70;59.17
45888;BME280;31595;51.418;7.572;2023-01-30T09:32:55;100197.09;;;9.69;59.50
45888;BME280;31595;51.418;7.572;2023-01-30T09:35:24;100196.00;;;9.56;58.30
45888;BME280;31595;51.418;7.572;2023-01-30T09:37:53;100195.63;;;9.49;59.70
45888;BME280;31595;51.418;7.572;2023-01-30T09:40:22;100207.25;;;9.51;58.22
45888;BME280;31595;51.418;7.572;2023-01-30T09:43:17;100212.44;;;9.44;57.69
45888;BME280;31595;51.418;7.572;2023-01-30T09:46:03;100217.81;;;9.26;58.70
45888;BME280;31595;51.418;7.572;2023-01-30T09:48:37;100204.59;;;9.46;58.13
45888;BME280;31595;51.418;7.572;2023-01-30T09:51:25;100210.03;;;9.51;58.94
45888;BME280;31595;51.418;7.572;2023-01-30T09:54:14;100222.03;;;13.33;51.85
45888;BME280;31595;51.418;7.572;2023-01-30T09:56:43;100222.19;;;12.68;50.49
45888;BME280;31595;51.418;7.572;2023-01-30T09:59:18;100227.91;;;11.64;51.55
45888;BME280;31595;51.418;7.572;2023-01-30T10:01:54;100235.53;;;11.14;52.53
45888;BME280;31595;51.418;7.572;2023-01-30T10:04:29;100234.81;;;10.91;52.86
45888;BME280;31595;51.418;7.572;2023-01-30T10:07:09;100253.22;;;10.61;53.29
45888;BME280;31595;51.418;7.572;2023-01-30T10:09:48;100244.91;;;10.39;54.36
45888;BME280;31595;51.418;7.572;2023-01-30T10:12:27;100248.50;;;10.16;55.23
45888;BME280;31595;51.418;7.572;2023-01-30T10:15:14;100253.94;;;9.99;54.97
45888;BME280;31595;51.418;7.572;2023-01-30T10:17:56;100248.09;;;9.87;56.04
45888;BME280;31595;51.418;7.572;2023-01-30T10:20:33;100252.78;;;9.78;55.56
45888;BME280;31595;51.418;7.572;2023-01-30T10:23:17;100235.84;;;9.65;56.19
45888;BME280;31595;51.418;7.572;2023-01-30T10:25:53;100248.63;;;9.52;55.45
45888;BME280;31595;51.418;7.572;2023-01-30T10:28:23;100243.50;;;9.46;55.70
45888;BME280;31595;51.418;7.572;2023-01-30T10:30:59;100238.03;;;9.54;56.60
45888;BME280;31595;51.418;7.572;2023-01-30T10:33:29;100246.63;;;9.81;55.09
45888;BME280;31595;51.418;7.572;2023-01-30T10:36:02;100243.81;;;10.03;54.57
45888;BME280;31595;51.418;7.572;2023-01-30T10:38:36;100237.06;;;9.95;54.91
45888;BME280;31595;51.418;7.572;2023-01-30T10:41:14;100221.44;;;10.08;53.94
45888;BME280;31595;51.418;7.572;2023-01-30T10:43:46;100227.25;;;10.21;54.33
45888;BME280;31595;51.418;7.572;2023-01-30T10:46:23;100238.06;;;10.22;54.03
45888;BME280;31595;51.418;7.572;2023-01-30T10:48:57;100226.25;;;10.16;53.41
45888;BME280;31595;51.418;7.572;2023-01-30T10:51:43;100222.00;;;10.19;53.48
45888;BME280;31595;51.418;7.572;2023-01-30T10:54:19;100234.59;;;10.16;53.81
45888;BME280;31595;51.418;7.572;2023-01-30T10:56:56;100235.72;;;10.15;53.78
45888;BME280;31595;51.418;7.572;2023-01-30T10:59:33;100248.13;;;10.09;54.66
45888;BME280;31595;51.418;7.572;2023-01-30T11:02:15;100235.59;;;9.98;53.58
45888;BME280;31595;51.418;7.572;2023-01-30T11:04:50;100242.22;;;9.88;54.19
45888;BME280;31595;51.418;7.572;2023-01-30T11:07:21;100232.31;;;9.73;54.18
45888;BME280;31595;51.418;7.572;2023-01-30T11:09:48;100236.09;;;9.78;54.47
45888;BME280;31595;51.418;7.572;2023-01-30T11:12:17;100231.03;;;9.80;54.38
45888;BME280;31595;51.418;7.572;2023-01-30T11:14:55;100244.44;;;9.78;53.89
45888;BME280;31595;51.418;7.572;2023-01-30T11:17:32;100238.81;;;9.69;54.47
45888;BME280;31595;51.418;7.572;2023-01-30T11:20:10;100237.16;;;9.68;54.62
45888;BME280;31595;51.418;7.572;2023-01-30T11:22:46;100251.69;;;9.65;54.15
45888;BME280;31595;51.418;7.572;2023-01-30T11:25:15;100231.41;;;9.64;53.86
45888;BME280;31595;51.418;7.572;2023-01-30T11:27:52;100238.59;;;9.65;54.05
45888;BME280;31595;51.418;7.572;2023-01-30T11:30:21;100263.94;;;9.64;53.50
45888;BME280;31595;51.418;7.572;2023-01-30T11:33:04;100263.34;;;9.53;54.03
45888;BME280;31595;51.418;7.572;2023-01-30T11:35:32;100253.25;;;9.57;54.62
45888;BME280;31595;51.418;7.572;2023-01-30T11:38:11;100251.94;;;9.54;53.88
45888;BME280;31595;51.418;7.572;2023-01-30T11:40:39;100246.22;;;9.73;54.14
45888;BME280;31595;51.418;7.572;2023-01-30T11:43:12;100252.03;;;9.86;54.20
45888;BME280;31595;51.418;7.572;2023-01-30T11:45:42;100252.41;;;9.70;53.86
45888;BME280;31595;51.418;7.572;2023-01-30T11:48:15;100258.56;;;9.81;54.27
45888;BME280;31595;51.418;7.572;2023-01-30T11:50:46;100241.88;;;9.81;55.35
45888;BME280;31595;51.418;7.572;2023-01-30T11:53:25;100250.97;;;10.18;54.70
45888;BME280;31595;51.418;7.572;2023-01-30T11:55:59;100248.88;;;10.24;52.99
45888;BME280;31595;51.418;7.572;2023-01-30T11:58:32;100247.75;;;10.02;53.71
45888;BME280;31595;51.418;7.572;2023-01-30T12:01:01;100263.81;;;10.05;53.97
45888;BME280;31595;51.418;7.572;2023-01-30T12:03:29;100267.59;;;9.87;55.71
45888;BME280;31595;51.418;7.572;2023-01-30T12:05:56;100297.00;;;9.65;57.33
45888;BME280;31595;51.418;7.572;2023-01-30T12:08:27;100274.31;;;9.49;59.40
45888;BME280;31595;51.418;7.572;2023-01-30T12:10:59;100264.00;;;9.50;60.17
45888;BME280;31595;51.418;7.572;2023-01-30T12:13:31;100274.47;;;9.53;59.77
45888;BME280;31595;51.418;7.572;2023-01-30T12:16:14;100260.72;;;9.48;59.71
45888;BME280;31595;51.418;7.572;2023-01-30T12:18:48;100271.19;;;9.51;59.67
45888;BME280;31595;51.418;7.572;2023-01-30T12:21:27;100252.41;;;10.15;59.15
45888;BME280;31595;51.418;7.572;2023-01-30T12:24:04;100259.38;;;10.27;57.52
45888;BME280;31595;51.418;7.572;2023-01-30T12:26:36;100260.66;;;10.21;57.13
45888;BME280;31595;51.418;7.572;2023-01-30T12:29:20;100257.38;;;10.19;56.49
45888;BME280;31595;51.418;7.572;2023-01-30T12:31:56;100256.97;;;10.11;56.48
45888;BME280;31595;51.418;7.572;2023-01-30T12:34:26;100251.16;;;10.22;56.64
45888;BME280;31595;51.418;7.572;2023-01-30T12:37:05;100263.69;;;10.33;56.30
45888;BME280;31595;51.418;7.572;2023-01-30T12:39:43;100263.63;;;10.47;55.11
45888;BME280;31595;51.418;7.572;2023-01-30T12:42:26;100265.91;;;10.76;55.11
45888;BME280;31595;51.418;7.572;2023-01-30T12:45:16;100262.53;;;10.88;54.20
45888;BME280;31595;51.418;7.572;2023-01-30T12:48:16;100261.06;;;10.90;53.11
45888;BME280;31595;51.418;7.572;2023-01-30T12:50:57;100266.38;;;10.69;53.51
45888;BME280;31595;51.418;7.572;2023-01-30T12:53:36;100259.53;;;10.44;52.70
45888;BME280;31595;51.418;7.572;2023-01-30T12:59:18;100258.38;;;10.23;53.05
45888;BME280;31595;51.418;7.572;2023-01-30T13:01:58;100251.53;;;12.36;49.31
45888;BME280;31595;51.418;7.572;2023-01-30T13:04:39;100274.69;;;11.84;48.12
45888;BME280;31595;51.418;7.572;2023-01-30T13:07:16;100269.72;;;11.37;49.14
45888;BME280;31595;51.418;7.572;2023-01-30T13:09:58;100263.75;;;11.13;50.47
45888;BME280;31595;51.418;7.572;2023-01-30T13:12:36;100257.31;;;11.78;49.03
45888;BME280;31595;51.418;7.572;2023-01-30T13:15:15;100273.84;;;11.57;49.03
45888;BME280;31595;51.418;7.572;2023-01-30T13:17:59;100280.00;;;11.20;49.21
45888;BME280;31595;51.418;7.572;2023-01-30T13:20:39;100281.41;;;11.00;50.15
45888;BME280;31595;51.418;7.572;2023-01-30T13:23:12;100281.94;;;10.70;50.28